Time;durP1;ratioP1;P1;durP2;ratioP2;P2;SDS_P1;SDS_P2;PMS_P1;PMS_P2;Temp;Humidity;BMP_temperature;BMP_pressure;BME280_temperature;BME280_humidity;BME280_pressure;Samples;Min_cycle;Max_cycle;Signal;HPM_P1;HPM_P2
2021/04/04 00:02:13;;;;;;;24.48;6.85;;;;;;;5.69;61.30;100655.59;5030282;28;20034;-74
2021/04/04 00:04:38;;;;;;;29.17;7.78;;;;;;;5.64;61.78;100661.78;5028691;28;20048;-74
2021/04/04 00:07:03;;;;;;;26.30;7.88;;;;;;;5.53;61.76;100662.78;5011059;28;20037;-73
2021/04/04 00:09:29;;;;;;;22.55;7.55;;;;;;;5.44;61.92;100662.94;5014420;28;20488;-73
2021/04/04 00:11:54;;;;;;;17.65;7.05;;;;;;;5.39;61.86;100664.75;5029951;28;20029;-73
2021/04/04 00:14:19;;;;;;;24.45;6.18;;;;;;;5.38;61.63;100665.63;5029811;28;20121;-74
2021/04/04 00:16:45;;;;;;;18.23;6.45;;;;;;;5.37;61.73;100656.06;5029207;28;20029;-73
2021/04/04 00:19:11;;;;;;;14.80;7.05;;;;;;;5.30;61.96;100657.03;5030207;28;20493;-74
2021/04/04 00:21:36;;;;;;;19.27;7.38;;;;;;;5.19;61.89;100657.16;5033762;28;20030;-74
2021/04/04 00:24:06;;;;;;;18.15;7.50;;;;;;;5.19;62.07;100653.66;5032930;28;20049;-74
2021/04/04 00:26:31;;;;;;;16.05;6.38;;;;;;;5.13;62.21;100654.63;5033606;28;20068;-73
2021/04/04 00:28:57;;;;;;;23.08;7.15;;;;;;;5.08;62.73;100651.22;5033633;28;20698;-73
2021/04/04 00:31:22;;;;;;;21.02;8.13;;;;;;;5.08;62.46;100651.22;5033447;28;20108;-73
2021/04/04 00:33:48;;;;;;;29.25;6.68;;;;;;;5.11;62.84;100648.56;5033116;28;20034;-73
2021/04/04 00:36:14;;;;;;;16.63;6.65;;;;;;;5.09;62.79;100651.16;5033832;28;20121;-72
2021/04/04 00:38:39;;;;;;;21.30;8.88;;;;;;;5.04;63.08;100650.38;5027617;28;20447;-73
2021/04/04 00:41:05;;;;;;;20.33;6.82;;;;;;;5.03;62.96;100646.03;5041989;28;20029;-74
2021/04/04 00:43:30;;;;;;;20.13;6.97;;;;;;;5.04;63.35;100650.38;5033461;28;20079;-74
2021/04/04 00:45:56;;;;;;;19.70;7.72;;;;;;;5.11;62.96;100645.94;5031714;28;20038;-73
2021/04/04 00:48:22;;;;;;;21.52;6.43;;;;;;;5.21;62.61;100651.91;5034455;28;20044;-74
2021/04/04 00:50:47;;;;;;;16.98;5.75;;;;;;;5.24;62.01;100642.28;5046641;28;20579;-74
2021/04/04 00:53:13;;;;;;;24.45;6.75;;;;;;;5.22;62.02;100651.91;5069846;28;20028;-74
2021/04/04 00:55:38;;;;;;;21.55;6.15;;;;;;;5.23;62.01;100645.78;5048871;28;20883;-74
2021/04/04 00:58:04;;;;;;;25.35;8.73;;;;;;;5.22;62.31;100644.06;5040540;28;22575;-74
2021/04/04 01:00:32;;;;;;;23.92;8.23;;;;;;;5.22;62.45;100636.22;5038045;28;20093;-74
2021/04/04 01:02:57;;;;;;;23.80;7.97;;;;;;;5.26;62.17;100640.50;5063253;28;20104;-73
2021/04/04 01:05:27;;;;;;;18.83;8.15;;;;;;;5.27;62.29;100636.16;5060260;28;20429;-73
2021/04/04 01:07:56;;;;;;;20.50;7.63;;;;;;;5.26;62.51;100642.25;5059117;28;20108;-73
2021/04/04 01:10:23;;;;;;;25.02;9.38;;;;;;;5.20;62.46;100648.44;5060047;28;20033;-73
2021/04/04 01:13:03;;;;;;;15.05;7.10;;;;;;;5.19;62.24;100651.91;5060884;28;20112;-73
2021/04/04 01:15:48;;;;;;;18.77;7.07;;;;;;;5.24;62.37;100646.63;5058420;28;20498;-72
2021/04/04 01:18:22;;;;;;;26.30;7.40;;;;;;;5.28;62.23;100643.97;5056956;28;20036;-72
2021/04/04 01:21:00;;;;;;;23.15;7.32;;;;;;;5.28;62.54;100630.88;5037727;28;20075;-73
2021/04/04 01:23:38;;;;;;;20.38;6.97;;;;;;;5.28;62.50;100643.09;5038776;28;20032;-73
2021/04/04 01:26:45;;;;;;;16.58;6.00;;;;;;;5.28;62.06;100641.34;5044818;28;20639;-74
2021/04/04 01:29:12;;;;;;;24.73;9.20;;;;;;;5.20;62.26;100635.38;5039086;28;20041;-74
2021/04/04 01:31:38;;;;;;;21.58;7.35;;;;;;;5.17;62.45;100632.81;5033729;28;20037;-73
2021/04/04 01:34:06;;;;;;;32.47;8.07;;;;;;;5.17;62.05;100635.41;5035493;28;20030;-72
2021/04/04 01:36:36;;;;;;;31.15;7.80;;;;;;;5.18;62.07;100650.19;5035184;28;20033;-73
2021/04/04 01:39:08;;;;;;;34.92;10.02;;;;;;;5.12;62.10;100652.91;5034792;28;20026;-73
2021/04/04 01:41:38;;;;;;;16.00;6.82;;;;;;;5.07;62.60;100652.97;5033706;28;20447;-73
2021/04/04 01:44:07;;;;;;;25.50;9.23;;;;;;;5.11;62.30;100654.63;5033811;28;20084;-73
2021/04/04 01:46:34;;;;;;;19.98;7.20;;;;;;;5.12;62.52;100656.38;5032653;28;20061;-73
2021/04/04 01:48:59;;;;;;;22.23;7.22;;;;;;;5.09;62.26;100655.53;5031501;28;20061;-73
2021/04/04 01:51:27;;;;;;;25.45;7.30;;;;;;;5.08;62.44;100652.06;5045062;28;20381;-73
2021/04/04 01:53:55;;;;;;;27.92;8.20;;;;;;;5.00;62.59;100653.91;5046869;28;20037;-73
2021/04/04 01:56:22;;;;;;;25.55;10.07;;;;;;;5.00;62.78;100650.44;5054480;28;20036;-73
2021/04/04 01:58:49;;;;;;;25.85;9.52;;;;;;;5.03;62.74;100651.25;5054321;28;20044;-73
2021/04/04 02:01:14;;;;;;;31.92;9.27;;;;;;;5.09;62.43;100652.94;5053819;28;20029;-73
2021/04/04 02:03:44;;;;;;;24.98;8.45;;;;;;;5.11;62.16;100648.56;5032136;28;20034;-73
2021/04/04 02:06:13;;;;;;;21.90;9.18;;;;;;;5.03;62.68;100648.66;5034354;28;20116;-73
2021/04/04 02:08:42;;;;;;;26.52;9.57;;;;;;;4.99;62.74;100641.72;5034056;28;20053;-74
2021/04/04 02:11:10;;;;;;;22.55;8.20;;;;;;;5.02;62.49;100641.72;5034013;28;20091;-74
2021/04/04 02:13:37;;;;;;;21.98;9.30;;;;;;;5.04;62.65;100644.28;5031802;28;20056;-74
2021/04/04 02:16:04;;;;;;;22.50;8.23;;;;;;;5.05;62.28;100640.81;5034587;28;20087;-74
2021/04/04 02:18:30;;;;;;;20.45;7.22;;;;;;;5.05;62.39;100635.56;5032360;28;20040;-73
2021/04/04 02:20:57;;;;;;;16.88;6.53;;;;;;;5.00;62.44;100637.38;5032189;28;20038;-73
2021/04/04 02:23:24;;;;;;;23.88;9.10;;;;;;;4.99;62.44;100635.63;5030284;28;20025;-73
2021/04/04 02:25:55;;;;;;;23.70;8.43;;;;;;;5.03;62.98;100635.59;5032078;28;20389;-74
2021/04/04 02:28:21;;;;;;;34.17;9.30;;;;;;;5.02;62.47;100635.59;5031649;28;20033;-74
2021/04/04 02:30:47;;;;;;;32.63;8.18;;;;;;;4.97;62.79;100638.25;5031145;28;20481;-73
2021/04/04 02:33:20;;;;;;;20.38;7.07;;;;;;;5.01;62.58;100634.72;5031074;28;20083;-73
2021/04/04 02:35:50;;;;;;;20.55;9.07;;;;;;;4.95;62.67;100633.06;5030905;28;20029;-73
2021/04/04 02:38:23;;;;;;;22.65;7.28;;;;;;;4.90;63.09;100632.25;5031250;28;20033;-73
2021/04/04 02:40:50;;;;;;;19.13;8.77;;;;;;;4.91;62.79;100633.97;5031025;28;20025;-73
2021/04/04 02:43:20;;;;;;;25.80;7.82;;;;;;;4.92;63.09;100635.72;5030350;28;20099;-73
2021/04/04 02:45:48;;;;;;;17.77;6.40;;;;;;;4.88;62.93;100627.94;5031527;28;20550;-75
2021/04/04 02:48:17;;;;;;;25.08;8.18;;;;;;;4.90;62.56;100631.41;5029583;28;20664;-74
2021/04/04 02:50:44;;;;;;;20.67;7.07;;;;;;;4.95;62.76;100627.84;5030849;28;20048;-74
2021/04/04 02:53:12;;;;;;;19.92;6.97;;;;;;;5.00;62.41;100626.94;5030614;28;20033;-74
2021/04/04 02:55:38;;;;;;;24.13;6.93;;;;;;;4.95;62.44;100619.16;5041309;28;20060;-74
2021/04/04 02:58:05;;;;;;;20.55;8.50;;;;;;;4.97;62.56;100622.56;5030741;28;20041;-74
2021/04/04 03:00:30;;;;;;;20.80;7.88;;;;;;;4.92;62.71;100620.06;5045695;28;20064;-73
2021/04/04 03:02:59;;;;;;;16.33;6.72;;;;;;;4.88;63.12;100614.88;5029180;28;20053;-74
2021/04/04 03:05:26;;;;;;;19.33;8.65;;;;;;;4.88;63.13;100615.75;5030599;28;20465;-74
2021/04/04 03:07:54;;;;;;;25.77;8.45;;;;;;;4.95;63.16;100609.56;5029139;28;20040;-74
2021/04/04 03:10:19;;;;;;;19.92;7.03;;;;;;;4.97;62.63;100604.28;5032003;28;20029;-73
2021/04/04 03:12:47;;;;;;;20.77;7.55;;;;;;;4.95;62.97;100611.31;5031290;28;20374;-74
2021/04/04 03:15:15;;;;;;;23.27;8.85;;;;;;;4.92;62.98;100609.59;5028233;28;20038;-74
2021/04/04 03:17:42;;;;;;;25.80;8.00;;;;;;;4.91;63.20;100609.59;5030856;28;20038;-74
2021/04/04 03:20:12;;;;;;;18.60;6.68;;;;;;;4.89;63.12;100612.22;5030600;28;20519;-74
2021/04/04 03:22:40;;;;;;;29.38;8.57;;;;;;;4.91;63.40;100609.59;5030667;28;20043;-74
2021/04/04 03:25:08;;;;;;;30.58;9.30;;;;;;;4.91;63.52;100615.69;5033938;28;20534;-75
2021/04/04 03:27:35;;;;;;;26.10;8.82;;;;;;;4.92;62.50;100611.31;5028470;28;20178;-74
2021/04/04 03:30:00;;;;;;;20.95;7.80;;;;;;;4.93;62.67;100616.53;5029738;28;20388;-74
2021/04/04 03:32:27;;;;;;;19.58;7.88;;;;;;;4.93;62.47;100603.47;5029784;28;20041;-74
2021/04/04 03:34:52;;;;;;;17.80;6.57;;;;;;;4.95;62.29;100606.09;5029641;28;20039;-74
2021/04/04 03:37:18;;;;;;;27.63;8.90;;;;;;;4.99;62.03;100604.28;5030302;28;20041;-74
2021/04/04 03:39:44;;;;;;;23.20;8.25;;;;;;;4.97;62.10;100603.44;5045043;28;20041;-74
2021/04/04 03:42:10;;;;;;;21.67;6.32;;;;;;;4.99;61.74;100607.75;5030238;28;20037;-74
2021/04/04 03:44:39;;;;;;;27.05;7.65;;;;;;;4.99;61.47;100604.28;5045185;28;20503;-74
2021/04/04 03:47:05;;;;;;;22.40;7.60;;;;;;;4.90;62.15;100605.28;5029355;28;20095;-74
2021/04/04 03:49:33;;;;;;;20.55;6.72;;;;;;;4.89;62.23;100606.16;5030481;28;20042;-73
2021/04/04 03:52:00;;;;;;;21.35;7.35;;;;;;;4.91;62.30;100610.47;5034887;28;20029;-73
2021/04/04 03:54:26;;;;;;;25.33;8.60;;;;;;;4.93;61.89;100597.41;5033397;28;20382;-74
2021/04/04 03:56:54;;;;;;;19.52;6.20;;;;;;;4.92;62.18;100598.25;5026780;28;20053;-74
2021/04/04 03:59:22;;;;;;;17.02;6.53;;;;;;;4.92;62.19;100582.59;5010013;28;20440;-73
2021/04/04 04:01:49;;;;;;;16.63;6.25;;;;;;;4.93;62.03;100586.94;5010527;28;20033;-73
2021/04/04 04:04:15;;;;;;;20.45;7.03;;;;;;;4.90;61.71;100585.25;5010313;28;20117;-74
2021/04/04 04:06:44;;;;;;;20.42;7.25;;;;;;;4.89;62.08;100585.25;5010540;28;20037;-74
2021/04/04 04:09:13;;;;;;;20.25;6.38;;;;;;;4.89;61.75;100580.03;5024604;28;20041;-75
2021/04/04 04:11:41;;;;;;;32.78;7.13;;;;;;;4.88;61.47;100581.78;5045851;28;20468;-76
2021/04/04 04:14:10;;;;;;;26.40;8.02;;;;;;;4.89;61.43;100578.25;5046974;28;20045;-74
2021/04/04 04:16:36;;;;;;;22.50;7.53;;;;;;;4.88;61.29;100571.31;5048479;28;20495;-74
2021/04/04 04:19:03;;;;;;;28.75;7.45;;;;;;;4.87;61.29;100564.38;5049207;28;20025;-74
2021/04/04 04:21:34;;;;;;;17.25;7.00;;;;;;;4.98;61.16;100569.44;5049706;28;20495;-74
2021/04/04 04:24:02;;;;;;;18.17;5.47;;;;;;;5.00;61.05;100559.00;5049804;28;20041;-74
2021/04/04 04:26:30;;;;;;;25.70;8.00;;;;;;;4.99;61.14;100559.84;5050207;28;20124;-73
2021/04/04 04:28:57;;;;;;;17.70;7.22;;;;;;;4.90;61.03;100559.13;5041144;28;20029;-74
2021/04/04 04:31:38;;;;;;;24.17;7.55;;;;;;;4.89;61.22;100559.13;5030462;28;20078;-74
2021/04/04 04:34:06;;;;;;;19.25;6.28;;;;;;;4.99;61.08;100568.56;5030194;28;20500;-75
2021/04/04 04:36:33;;;;;;;15.88;5.80;;;;;;;4.98;60.32;100559.00;5030018;28;20053;-76
2021/04/04 04:38:59;;;;;;;29.83;6.70;;;;;;;4.97;60.59;100559.88;5030686;28;20117;-73
2021/04/04 04:41:25;;;;;;;25.90;6.68;;;;;;;5.02;60.51;100551.97;5030223;28;20533;-74
2021/04/04 04:43:56;;;;;;;18.73;7.70;;;;;;;5.02;60.31;100549.34;5030150;28;20172;-74
2021/04/04 04:46:23;;;;;;;16.60;5.88;;;;;;;5.07;60.47;100544.94;5029542;28;20038;-74
2021/04/04 04:48:48;;;;;;;25.55;8.30;;;;;;;5.11;60.43;100544.00;5029296;28;20463;-73
2021/04/04 04:51:14;;;;;;;23.35;6.93;;;;;;;5.04;60.46;100547.59;5029417;28;20034;-75
2021/04/04 04:53:40;;;;;;;27.73;9.30;;;;;;;5.08;60.07;100551.91;5030586;28;20087;-75
2021/04/04 04:56:05;;;;;;;23.17;6.28;;;;;;;4.98;60.25;100551.16;5046679;28;20515;-75
2021/04/04 04:58:33;;;;;;;16.77;6.55;;;;;;;4.97;60.34;100554.66;5031437;28;20084;-75
2021/04/04 05:01:02;;;;;;;27.80;6.50;;;;;;;5.01;60.39;100547.66;5029258;28;20044;-74
2021/04/04 05:03:28;;;;;;;17.30;6.57;;;;;;;5.03;60.01;100548.50;5039554;28;20395;-75
2021/04/04 05:05:57;;;;;;;17.05;6.20;;;;;;;5.06;60.31;100543.22;5032011;28;20037;-75
2021/04/04 05:08:24;;;;;;;36.03;7.68;;;;;;;5.12;60.44;100548.38;5033246;28;20172;-74
2021/04/04 05:10:50;;;;;;;22.10;6.68;;;;;;;5.10;60.10;100556.22;5031473;28;20037;-74
2021/04/04 05:13:17;;;;;;;18.48;6.38;;;;;;;5.11;59.96;100552.69;5032733;28;20045;-74
2021/04/04 05:15:47;;;;;;;26.98;7.90;;;;;;;5.10;59.79;100553.59;5033192;28;20127;-74
2021/04/04 05:18:13;;;;;;;25.88;7.20;;;;;;;5.08;60.32;100554.50;5032638;28;20053;-74
2021/04/04 05:20:39;;;;;;;19.92;6.45;;;;;;;5.01;60.32;100558.94;5042517;28;20058;-74
2021/04/04 05:23:06;;;;;;;20.33;7.97;;;;;;;5.00;60.31;100553.78;5014270;28;20030;-74
2021/04/04 05:25:32;;;;;;;34.28;8.25;;;;;;;4.97;60.44;100548.56;5013713;28;20122;-75
2021/04/04 05:27:58;;;;;;;24.10;6.47;;;;;;;4.93;60.72;100559.06;5013054;28;20508;-75
2021/04/04 05:30:25;;;;;;;18.50;8.55;;;;;;;4.92;61.06;100561.69;5012629;28;20026;-75
2021/04/04 05:32:51;;;;;;;27.08;7.55;;;;;;;4.98;60.18;100559.00;5032526;28;20512;-75
2021/04/04 05:35:18;;;;;;;22.70;8.63;;;;;;;4.95;60.86;100569.50;5032312;28;20045;-74
2021/04/04 05:37:44;;;;;;;28.55;7.90;;;;;;;4.99;60.65;100576.41;5032183;28;20036;-75
2021/04/04 05:40:25;;;;;;;22.45;7.38;;;;;;;5.05;60.72;100572.84;5031698;28;20125;-76
2021/04/04 05:42:56;;;;;;;17.42;6.60;;;;;;;5.11;60.45;100571.00;5032332;28;20033;-72
2021/04/04 05:45:28;;;;;;;24.20;6.50;;;;;;;5.16;60.75;100569.19;5026311;28;20056;-74
2021/04/04 05:48:05;;;;;;;25.02;7.97;;;;;;;5.16;60.58;100571.78;5037933;28;20036;-75
2021/04/04 05:50:46;;;;;;;20.15;7.07;;;;;;;5.05;60.89;100565.88;5049930;28;20037;-75
2021/04/04 05:53:57;;;;;;;25.67;7.60;;;;;;;5.10;60.37;100565.81;5050498;28;20428;-74
2021/04/04 05:56:30;;;;;;;28.20;8.10;;;;;;;5.14;60.46;100570.09;4989943;28;20038;-74
2021/04/04 05:59:34;;;;;;;26.83;9.40;;;;;;;5.15;60.42;100567.47;4989345;28;20082;-73
2021/04/04 06:02:02;;;;;;;30.23;8.05;;;;;;;5.18;59.71;100570.94;5017845;28;20115;-76
2021/04/04 06:04:28;;;;;;;17.50;7.82;;;;;;;5.24;59.38;100571.72;5032039;28;20033;-77
2021/04/04 06:07:41;;;;;;;35.70;9.93;;;;;;;5.20;59.68;100570.03;5032472;28;20092;-77
2021/04/04 06:10:09;;;;;;;24.92;6.50;;;;;;;5.24;59.84;100568.22;5020068;28;20038;-76
2021/04/04 06:13:25;;;;;;;23.08;6.90;;;;;;;5.27;59.86;100565.56;5028930;28;20069;-75
2021/04/04 06:16:05;;;;;;;20.45;7.20;;;;;;;5.19;59.98;100560.44;5019040;28;20049;-74
2021/04/04 06:18:52;;;;;;;26.58;9.30;;;;;;;5.23;59.34;100561.25;5021439;28;20045;-74
2021/04/04 06:21:33;;;;;;;30.50;7.13;;;;;;;5.21;59.60;100569.13;5022270;28;20037;-74
2021/04/04 06:24:01;;;;;;;18.13;7.00;;;;;;;5.26;59.50;100566.44;5022834;28;20056;-73
2021/04/04 06:26:41;;;;;;;16.27;6.50;;;;;;;5.28;58.93;100570.75;5022241;28;20531;-73
2021/04/04 06:29:07;;;;;;;21.30;8.73;;;;;;;5.30;58.96;100561.16;5020503;28;20046;-74
2021/04/04 06:31:41;;;;;;;19.67;7.93;;;;;;;5.34;59.26;100561.94;5019843;28;20404;-74
2021/04/04 06:34:21;;;;;;;26.25;7.75;;;;;;;5.33;59.01;100568.94;5020585;28;20048;-74
2021/04/04 06:37:14;;;;;;;14.65;6.20;;;;;;;5.24;59.47;100563.88;5020648;28;20034;-74
2021/04/04 06:39:48;;;;;;;24.08;6.80;;;;;;;5.33;59.31;100568.06;5018832;28;20036;-75
2021/04/04 06:42:43;;;;;;;18.20;7.35;;;;;;;5.38;58.84;100568.88;5021470;28;21539;-75
2021/04/04 06:45:33;;;;;;;18.25;7.57;;;;;;;5.50;58.86;100573.91;5020522;28;20048;-74
2021/04/04 06:48:29;;;;;;;18.13;6.30;;;;;;;5.56;58.61;100575.56;5018732;28;20045;-74
2021/04/04 06:51:04;;;;;;;24.52;8.85;;;;;;;5.44;58.89;100575.75;5025011;28;20041;-76
2021/04/04 06:53:52;;;;;;;19.60;7.03;;;;;;;5.50;59.15;100571.28;5019735;28;20041;-76
2021/04/04 06:56:23;;;;;;;18.52;7.43;;;;;;;5.54;58.00;100566.91;5020725;28;20497;-75
2021/04/04 06:59:26;;;;;;;16.88;6.50;;;;;;;5.58;57.95;100569.41;5019321;28;20099;-76
2021/04/04 07:02:06;;;;;;;22.67;7.50;;;;;;;5.65;58.23;100574.56;5048689;28;20098;-76
2021/04/04 07:04:36;;;;;;;16.70;7.63;;;;;;;5.65;56.71;100575.41;5033299;28;20393;-76
2021/04/04 07:07:07;;;;;;;19.50;5.93;;;;;;;5.60;54.35;100578.09;5032464;28;20030;-76
2021/04/04 07:10:04;;;;;;;20.17;6.45;;;;;;;5.60;54.41;100566.78;5034058;28;20068;-76
2021/04/04 07:12:48;;;;;;;;;;;;;;;5.65;54.09;100564.09;5021235;28;20380;-75
2021/04/04 07:15:38;;;;;;;17.83;8.13;;;;;;;5.74;53.49;100561.34;5020990;28;19917;-75
2021/04/04 07:18:14;;;;;;;16.55;5.93;;;;;;;5.78;54.16;100570.84;5021653;28;20041;-75
2021/04/04 07:21:03;;;;;;;15.98;6.10;;;;;;;5.75;55.67;100571.75;5018663;28;20405;-75
2021/04/04 07:23:31;;;;;;;20.08;7.25;;;;;;;5.77;56.05;100564.75;5037041;28;20033;-76
2021/04/04 07:26:24;;;;;;;26.80;7.22;;;;;;;5.74;56.20;100564.81;5039195;28;20034;-73
2021/04/04 07:29:23;;;;;;;18.80;5.70;;;;;;;5.80;56.58;100569.06;5020423;28;20038;-75
2021/04/04 07:32:35;;;;;;;28.50;8.13;;;;;;;5.79;56.38;100565.59;5018260;28;20038;-74
2021/04/04 07:35:14;;;;;;;22.55;8.05;;;;;;;5.92;55.15;100571.47;5016196;28;20049;-75
2021/04/04 07:37:44;;;;;;;20.02;6.65;;;;;;;5.92;54.93;100562.75;5019957;28;20048;-74
2021/04/04 07:40:28;;;;;;;17.48;6.90;;;;;;;5.94;55.21;100566.25;5018801;28;20116;-75
2021/04/04 07:43:06;;;;;;;30.90;8.38;;;;;;;5.88;55.28;100559.34;5020671;28;20056;-75
2021/04/04 07:45:37;;;;;;;20.30;6.10;;;;;;;5.90;54.11;100561.91;5022914;28;20057;-75
2021/04/04 07:48:12;;;;;;;17.33;5.93;;;;;;;5.91;54.25;100563.66;5017549;28;20104;-73
2021/04/04 07:50:47;;;;;;;15.03;6.23;;;;;;;5.91;54.46;100564.53;5017973;28;20041;-75
2021/04/04 07:54:14;;;;;;;12.85;6.03;;;;;;;5.92;54.13;100565.38;5019854;28;20136;-75
2021/04/04 07:57:06;;;;;;;15.68;6.35;;;;;;;5.89;54.01;100565.44;4956807;28;20086;-75
2021/04/04 07:59:41;;;;;;;27.95;8.80;;;;;;;5.87;53.77;100557.59;5017448;28;20037;-75
2021/04/04 08:02:17;;;;;;;15.85;5.78;;;;;;;5.91;54.14;100567.13;5021352;28;20057;-74
2021/04/04 08:04:43;;;;;;;15.57;5.25;;;;;;;5.98;53.54;100562.66;5031149;28;20048;-71
2021/04/04 08:07:25;;;;;;;22.88;7.18;;;;;;;6.04;53.62;100559.09;5034664;28;20033;-72
2021/04/04 08:10:09;;;;;;;20.13;7.22;;;;;;;6.13;52.73;100541.47;5016372;28;20034;-71
2021/04/04 08:12:43;;;;;;;14.52;6.82;;;;;;;6.15;53.02;100550.16;5029537;28;20068;-71
2021/04/04 08:15:20;;;;;;;21.17;8.43;;;;;;;6.13;52.86;100551.94;5028269;28;20029;-71
2021/04/04 08:17:45;;;;;;;20.88;8.27;;;;;;;6.15;52.59;100550.16;5018131;28;20049;-70
2021/04/04 08:20:31;;;;;;;22.55;9.73;;;;;;;6.21;52.34;100551.78;5022846;28;20485;-71
2021/04/04 08:23:14;;;;;;;22.05;7.13;;;;;;;6.28;52.29;100555.16;5029426;28;20392;-72
2021/04/04 08:25:43;;;;;;;23.73;6.80;;;;;;;6.24;52.77;100557.81;5029088;28;20037;-72
2021/04/04 08:28:18;;;;;;;15.48;7.65;;;;;;;6.32;52.56;100557.66;5028987;28;20095;-71
2021/04/04 08:30:54;;;;;;;15.48;7.65;;;;;;;6.25;52.84;100558.69;5028937;28;20034;-71
2021/04/04 08:33:22;;;;;;;16.50;7.53;;;;;;;6.40;52.02;100552.31;5028985;28;20033;-71
2021/04/04 08:35:52;;;;;;;27.38;8.57;;;;;;;6.31;52.06;100555.09;5029075;28;20049;-71
2021/04/04 08:38:25;;;;;;;23.08;8.07;;;;;;;6.39;52.10;100554.03;5029067;28;20112;-71
2021/04/04 08:40:54;;;;;;;22.63;8.00;;;;;;;6.39;51.91;100564.50;5030350;28;20052;-71
2021/04/04 08:43:24;;;;;;;15.38;8.45;;;;;;;6.36;52.28;100561.09;5031460;28;20060;-71
2021/04/04 08:46:11;;;;;;;21.33;6.63;;;;;;;6.41;60.42;100562.72;5032657;28;20446;-49
2021/04/04 08:48:37;;;;;;;;;;;;;;;6.87;51.38;100566.19;5017440;28;20068;-51
2021/04/04 08:51:05;;;;;;;;;;;;;;;7.00;51.44;100567.63;5022581;28;19917;-52
2021/04/04 08:53:31;;;;;;;;;;;;;;;7.01;50.66;100569.34;5026542;28;19925;-52
2021/04/04 08:55:58;;;;;;;;;;;;;;;6.87;50.61;100577.53;5020708;28;19971;-53
2021/04/04 08:58:28;;;;;;;;;;;;;;;6.96;50.64;100573.81;5027316;28;20361;-54
2021/04/04 09:00:55;;;;;;;;;;;;;;;6.91;50.40;100570.44;5027951;28;19971;-54
2021/04/04 09:03:22;;;;;;;;;;;;;;;6.85;51.38;100567.97;5026304;28;19913;-52
2021/04/04 09:05:48;;;;;;;;;;;;;;;7.03;51.62;100567.56;5025009;28;20318;-49
2021/04/04 09:08:14;;;;;;;;;;;;;;;6.93;51.94;100571.28;5027956;28;20240;-52
2021/04/04 09:10:43;;;;;;;;;;;;;;;6.82;52.31;100575.91;5025238;28;19970;-76
2021/04/04 09:13:17;;;;;;;;;;;;;;;6.82;52.65;100573.28;5030132;28;19916;-75
2021/04/04 09:15:54;;;;;;;;;;;;;;;6.75;52.72;100571.69;5007816;28;19924;-74
2021/04/04 09:18:19;;;;;;;;;;;;;;;6.51;52.86;100573.03;5008644;28;19917;-80
2021/04/04 09:20:46;;;;;;;;;;;;;;;6.61;52.85;100564.09;5012640;28;20004;-78
2021/04/04 09:23:12;;;;;;;;;;;;;;;6.63;52.90;100575.41;5009796;28;19917;-78
2021/04/04 09:25:46;;;;;;;;;;;;;;;6.71;53.08;100573.50;5012936;28;19956;-78
2021/04/04 09:28:12;;;;;;;;;;;;;;;6.74;52.66;100575.19;5027729;28;19917;-76
2021/04/04 09:30:41;;;;;;;;;;;;;;;6.75;52.59;100572.53;5026660;28;20031;-75
2021/04/04 09:33:09;;;;;;;;;;;;;;;6.76;52.76;100573.41;5027733;28;19960;-77
2021/04/04 09:35:35;;;;;;;;;;;;;;;6.84;52.96;100577.59;5027931;28;20591;-78
2021/04/04 09:38:04;;;;;;;;;;;;;;;6.69;53.27;100570.03;5029763;28;19943;-79
2021/04/04 09:40:30;;;;;;;;;;;;;;;6.77;53.03;100567.25;5037427;28;19999;-79
2021/04/04 09:43:04;;;;;;;;;;;;;;;6.87;52.91;100568.81;5040348;28;19937;-77
2021/04/04 09:45:29;;;;;;;;;;;;;;;6.88;52.70;100567.91;5034266;28;19956;-77
2021/04/04 09:47:55;;;;;;;;;;;;;;;6.84;52.93;100566.22;5030931;28;19952;-79
2021/04/04 09:50:23;;;;;;;;;;;;;;;6.77;53.04;100562.91;5043041;28;19921;-77
2021/04/04 09:52:49;;;;;;;;;;;;;;;6.84;52.90;100568.84;5037246;28;19916;-79
2021/04/04 09:55:17;;;;;;;;;;;;;;;6.87;52.80;100569.66;5030336;28;19934;-77
2021/04/04 09:57:43;;;;;;;;;;;;;;;6.86;52.97;100560.06;5043803;28;19923;-80
2021/04/04 10:00:26;;;;;;;;;;;;;;;6.82;53.00;100553.19;5036090;28;19913;-76
2021/04/04 10:03:13;;;;;;;;;;;;;;;6.95;52.81;100551.16;5042695;28;19907;-80
2021/04/04 10:05:46;;;;;;;;;;;;;;;6.95;52.55;100553.75;5025744;28;20579;-81
2021/04/04 10:08:29;;;;;;;;;;;;;;;6.97;52.85;100554.59;5045569;28;20600;-77
2021/04/04 10:10:55;;;;;;;;;;;;;;;7.07;52.78;100542.16;5016028;28;19921;-78
2021/04/04 10:13:25;;;;;;;;;;;;;;;7.05;52.48;100547.41;5018255;28;19933;-77
2021/04/04 10:15:51;;;;;;;;;;;;;;;7.03;52.84;100538.72;5034825;28;20024;-78
2021/04/04 10:18:17;;;;;;;;;;;;;;;7.18;52.50;100534.88;5042837;28;19964;-80
2021/04/04 10:20:51;;;;;;;;;;;;;;;7.25;52.07;100531.22;5029903;28;19948;-70
2021/04/04 10:23:17;;;;;;;;;;;;;;;7.35;51.98;100529.25;5024481;28;20032;-69
2021/04/04 10:26:00;;;;;;;;;;;;;;;7.44;52.40;100526.41;5029742;28;20405;-70
2021/04/04 10:28:40;;;;;;;;;;;;;;;7.53;51.48;100527.91;5018237;28;20008;-69
2021/04/04 10:31:05;;;;;;;;;;;;;;;7.65;51.16;100529.38;5019875;28;19917;-70
2021/04/04 10:33:30;;;;;;;;;;;;;;;7.68;51.41;100531.97;5029678;28;19943;-70
2021/04/04 10:35:56;;;;;;;;;;;;;;;7.71;51.53;100524.84;5027236;28;19924;-69
2021/04/04 10:38:23;;;;;;;;;;;;;;;7.60;55.23;100523.38;5021786;28;19917;-68
2021/04/04 10:40:52;;;;;;;;;;;;;;;7.57;52.16;100518.22;5025847;28;19923;-70
2021/04/04 10:43:22;;;;;;;;;;;;;;;7.49;51.65;100514.03;5012997;28;19918;-70
2021/04/04 10:46:06;;;;;;;;;;;;;;;7.52;51.66;100513.09;5005223;28;19928;-70
2021/04/04 10:48:32;;;;;;;;;;;;;;;7.67;50.98;100519.72;5005470;28;19921;-71
2021/04/04 10:50:58;;;;;;;;;;;;;;;7.79;50.94;100514.16;5006120;28;19929;-71
2021/04/04 10:53:24;;;;;;;;;;;;;;;7.83;50.63;100507.94;5010621;28;20674;-70
2021/04/04 10:55:49;;;;;;;;;;;;;;;7.87;50.42;100503.44;5006010;28;19943;-70
2021/04/04 10:58:19;;;;;;;;;;;;;;;7.77;50.96;100507.22;5005820;28;20376;-70
2021/04/04 11:00:44;;;;;;;;;;;;;;;7.68;50.95;100501.31;5005475;28;19917;-70
2021/04/04 11:03:09;;;;;;;;;;;;;;;7.75;50.75;100496.75;5007850;28;20311;-69
2021/04/04 11:05:36;;;;;;;;;;;;;;;7.79;50.76;100487.91;5006263;28;19913;-71
2021/04/04 11:08:01;;;;;;;;;;;;;;;7.95;50.32;100483.13;5006843;28;20012;-70
2021/04/04 11:10:27;;;;;;;;;;;;;;;8.06;49.92;100481.03;5026712;28;19996;-72
2021/04/04 11:12:52;;;;;;;;;;;;;;;8.15;50.35;100475.53;5025501;28;19917;-72
2021/04/04 11:15:18;;;;;;;;;;;;;;;8.15;50.01;100462.41;5027169;28;19921;-71
2021/04/04 11:17:45;;;;;;;;;;;;;;;8.09;49.67;100465.19;5027351;28;19928;-72
2021/04/04 11:20:14;;;;;;;;;;;;;;;8.13;49.77;100464.22;5044344;28;19922;-68
2021/04/04 11:22:40;;;;;;;;;;;;;;;8.18;49.36;100462.31;5048700;28;20003;-77
2021/04/04 11:25:05;;;;;;;;;;;;;;;8.38;49.07;100461.72;5051923;28;19913;-79
2021/04/04 11:27:37;;;;;;;;;;;;;;;8.58;49.02;100455.06;5048019;28;19917;-79
2021/04/04 11:30:03;;;;;;;;;;;;;;;8.59;48.41;100447.13;5070847;28;20074;-79
2021/04/04 11:32:28;;;;;;;;;;;;;;;8.57;48.84;100442.84;5063306;28;19917;-77
2021/04/04 11:34:57;;;;;;;;;;;;;;;8.57;48.67;100437.59;5057041;28;19932;-78
2021/04/04 11:37:29;;;;;;;;;;;;;;;8.61;48.92;100436.56;5059168;28;19964;-78
2021/04/04 11:40:14;;;;;;;;;;;;;;;8.69;48.24;100434.56;5060382;28;19916;-79
2021/04/04 11:42:40;;;;;;;;;;;;;;;8.67;48.46;100423.25;5058475;28;19917;-78
2021/04/04 11:45:06;;;;;;;;;;;;;;;8.82;48.65;100411.38;5055095;28;19927;-80
2021/04/04 11:47:34;;;;;;;;;;;;;;;9.02;48.24;100413.38;5051385;28;19916;-77
2021/04/04 11:50:00;;;;;;;;;;;;;;;9.12;47.14;100412.16;5053283;28;20014;-78
2021/04/04 11:52:25;;;;;;;;;;;;;;;9.01;47.50;100411.66;5046832;28;19959;-77
2021/04/04 11:54:52;;;;;;;;;;;;;;;9.00;47.55;100415.19;5045356;28;19921;-74
2021/04/04 11:57:17;;;;;;;;;;;;;;;9.00;47.52;100405.50;5046958;28;19920;-78
2021/04/04 11:59:42;;;;;;;;;;;;;;;9.07;47.46;100406.19;5038943;28;19923;-80
2021/04/04 12:02:08;;;;;;;;;;;;;;;9.03;47.62;100405.44;5046474;28;20172;-77
2021/04/04 12:04:36;;;;;;;;;;;;;;;9.05;48.08;100410.63;5047600;28;19920;-77
2021/04/04 12:07:08;;;;;;;;;;;;;;;9.11;47.97;100404.34;5024574;28;20595;-77